sensor_id;sensor_type;location;lat;lon;timestamp;pressure;altitude;pressure_sealevel;temperature;humidity
21300;BME280;10809;49.476;11.016;2023-02-20T00:02:04;99217.66;;;7.45;68.53
21300;BME280;10809;49.476;11.016;2023-02-20T00:04:35;99220.28;;;7.45;68.47
21300;BME280;10809;49.476;11.016;2023-02-20T00:07:05;99221.16;;;7.46;68.57
21300;BME280;10809;49.476;11.016;2023-02-20T00:09:35;99229.94;;;7.46;68.90
21300;BME280;10809;49.476;11.016;2023-02-20T00:12:06;99216.81;;;7.45;68.53
21300;BME280;10809;49.476;11.016;2023-02-20T00:14:36;99215.94;;;7.44;68.62
21300;BME280;10809;49.476;11.016;2023-02-20T00:17:10;99222.97;;;7.44;68.53
21300;BME280;10809;49.476;11.016;2023-02-20T00:19:40;99227.34;;;7.45;68.88
21300;BME280;10809;49.476;11.016;2023-02-20T00:22:11;99227.34;;;7.45;68.91
21300;BME280;10809;49.476;11.016;2023-02-20T00:24:51;99219.44;;;7.45;68.62
21300;BME280;10809;49.476;11.016;2023-02-20T00:27:21;99222.94;;;7.45;68.70
21300;BME280;10809;49.476;11.016;2023-02-20T00:29:52;99215.03;;;7.45;68.66
21300;BME280;10809;49.476;11.016;2023-02-20T00:32:28;99223.81;;;7.46;68.49
21300;BME280;10809;49.476;11.016;2023-02-20T00:34:58;99226.44;;;7.46;68.62
21300;BME280;10809;49.476;11.016;2023-02-20T00:37:29;99233.47;;;7.45;68.85
21300;BME280;10809;49.476;11.016;2023-02-20T00:40:03;99228.19;;;7.45;68.61
21300;BME280;10809;49.476;11.016;2023-02-20T00:42:43;99232.56;;;7.46;68.73
21300;BME280;10809;49.476;11.016;2023-02-20T00:45:16;99229.06;;;7.46;68.91
21300;BME280;10809;49.476;11.016;2023-02-20T00:47:47;99229.03;;;7.47;68.79
21300;BME280;10809;49.476;11.016;2023-02-20T00:50:18;99230.78;;;7.47;68.91
21300;BME280;10809;49.476;11.016;2023-02-20T00:52:49;99224.63;;;7.48;68.65
21300;BME280;10809;49.476;11.016;2023-02-20T00:55:24;99220.25;;;7.47;68.55
21300;BME280;10809;49.476;11.016;2023-02-20T00:57:57;99226.44;;;7.46;68.96
21300;BME280;10809;49.476;11.016;2023-02-20T01:00:31;99227.25;;;7.48;68.89
21300;BME280;10809;49.476;11.016;2023-02-20T01:03:04;99226.38;;;7.47;68.54
21300;BME280;10809;49.476;11.016;2023-02-20T01:05:37;99226.38;;;7.47;68.88
21300;BME280;10809;49.476;11.016;2023-02-20T01:08:11;99220.25;;;7.47;68.77
21300;BME280;10809;49.476;11.016;2023-02-20T01:10:41;99221.16;;;7.46;68.70
21300;BME280;10809;49.476;11.016;2023-02-20T01:13:12;99219.41;;;7.46;68.76
21300;BME280;10809;49.476;11.016;2023-02-20T01:15:48;99214.13;;;7.46;68.43
21300;BME280;10809;49.476;11.016;2023-02-20T01:18:19;99224.69;;;7.46;68.82
21300;BME280;10809;49.476;11.016;2023-02-20T01:20:53;99216.81;;;7.45;68.76
21300;BME280;10809;49.476;11.016;2023-02-20T01:23:25;99216.81;;;7.45;68.78
21300;BME280;10809;49.476;11.016;2023-02-20T01:25:59;99221.22;;;7.44;68.81
21300;BME280;10809;49.476;11.016;2023-02-20T01:28:31;99228.25;;;7.44;68.30
21300;BME280;10809;49.476;11.016;2023-02-20T01:31:06;99228.28;;;7.42;68.45
21300;BME280;10809;49.476;11.016;2023-02-20T01:33:50;99230.97;;;7.41;68.47
21300;BME280;10809;49.476;11.016;2023-02-20T01:36:20;99216.97;;;7.39;68.54
21300;BME280;10809;49.476;11.016;2023-02-20T01:38:51;99223.13;;;7.38;68.75
21300;BME280;10809;49.476;11.016;2023-02-20T01:41:27;99222.31;;;7.37;68.20
21300;BME280;10809;49.476;11.016;2023-02-20T01:43:57;99224.09;;;7.35;68.59
21300;BME280;10809;49.476;11.016;2023-02-20T01:49:08;99221.56;;;7.32;68.59
21300;BME280;10809;49.476;11.016;2023-02-20T01:51:54;99211.97;;;7.30;68.32
21300;BME280;10809;49.476;11.016;2023-02-20T01:54:27;99211.19;;;7.26;68.40
21300;BME280;10809;49.476;11.016;2023-02-20T01:57:00;99210.34;;;7.24;68.06
21300;BME280;10809;49.476;11.016;2023-02-20T01:59:34;99205.13;;;7.23;68.08
21300;BME280;10809;49.476;11.016;2023-02-20T02:02:08;99195.56;;;7.20;68.56
21300;BME280;10809;49.476;11.016;2023-02-20T02:04:43;99192.06;;;7.20;68.18
21300;BME280;10809;49.476;11.016;2023-02-20T02:07:14;99204.34;;;7.19;68.57
21300;BME280;10809;49.476;11.016;2023-02-20T02:10:07;99197.34;;;7.18;68.50
21300;BME280;10809;49.476;11.016;2023-02-20T02:12:46;99200.91;;;7.17;68.50
21300;BME280;10809;49.476;11.016;2023-02-20T02:15:20;99192.09;;;7.18;68.79
21300;BME280;10809;49.476;11.016;2023-02-20T02:18:06;99190.38;;;7.17;68.72
21300;BME280;10809;49.476;11.016;2023-02-20T02:27:16;99193.84;;;7.18;68.33
21300;BME280;10809;49.476;11.016;2023-02-20T02:30:15;99196.47;;;7.18;68.34
21300;BME280;10809;49.476;11.016;2023-02-20T02:44:56;99198.38;;;7.14;68.40
21300;BME280;10809;49.476;11.016;2023-02-20T02:47:43;99180.81;;;7.13;68.75
21300;BME280;10809;49.476;11.016;2023-02-20T02:50:31;99173.78;;;7.14;68.72
21300;BME280;10809;49.476;11.016;2023-02-20T02:53:06;99167.66;;;7.13;68.81
21300;BME280;10809;49.476;11.016;2023-02-20T02:55:44;99173.75;;;7.15;68.84
21300;BME280;10809;49.476;11.016;2023-02-20T02:58:14;99167.66;;;7.13;68.64
21300;BME280;10809;49.476;11.016;2023-02-20T03:00:56;99167.66;;;7.13;68.89
21300;BME280;10809;49.476;11.016;2023-02-20T03:03:32;99172.06;;;7.13;68.38
21300;BME280;10809;49.476;11.016;2023-02-20T03:06:08;99170.31;;;7.12;68.42
21300;BME280;10809;49.476;11.016;2023-02-20T03:08:51;99168.59;;;7.11;68.63
21300;BME280;10809;49.476;11.016;2023-02-20T03:11:31;99156.34;;;7.10;68.42
21300;BME280;10809;49.476;11.016;2023-02-20T03:17:21;99169.63;;;7.07;68.35
21300;BME280;10809;49.476;11.016;2023-02-20T03:20:02;99178.34;;;7.06;68.39
21300;BME280;10809;49.476;11.016;2023-02-20T03:25:21;99191.63;;;7.03;68.40
21300;BME280;10809;49.476;11.016;2023-02-20T03:27:59;99183.75;;;7.01;68.57
21300;BME280;10809;49.476;11.016;2023-02-20T03:30:40;99188.22;;;6.99;68.67
21300;BME280;10809;49.476;11.016;2023-02-20T03:33:24;99198.75;;;6.99;68.38
21300;BME280;10809;49.476;11.016;2023-02-20T03:36:22;99199.69;;;6.97;68.28
21300;BME280;10809;49.476;11.016;2023-02-20T03:39:22;99190.94;;;6.96;68.41
21300;BME280;10809;49.476;11.016;2023-02-20T03:42:18;99186.56;;;6.95;68.21
21300;BME280;10809;49.476;11.016;2023-02-20T03:45:16;99183.13;;;6.93;68.37
21300;BME280;10809;49.476;11.016;2023-02-20T03:47:51;99190.19;;;6.91;68.64
21300;BME280;10809;49.476;11.016;2023-02-20T03:50:25;99191.09;;;6.90;68.40
21300;BME280;10809;49.476;11.016;2023-02-20T03:53:17;99192.00;;;6.89;68.74
21300;BME280;10809;49.476;11.016;2023-02-20T03:56:00;99182.38;;;6.88;68.62
21300;BME280;10809;49.476;11.016;2023-02-20T03:58:33;99193.81;;;6.87;68.58
21300;BME280;10809;49.476;11.016;2023-02-20T04:01:10;99186.84;;;6.85;69.12
21300;BME280;10809;49.476;11.016;2023-02-20T04:03:47;99191.28;;;6.84;68.61
21300;BME280;10809;49.476;11.016;2023-02-20T04:06:21;99188.63;;;6.84;68.95
21300;BME280;10809;49.476;11.016;2023-02-20T04:08:59;99180.75;;;6.84;68.67
21300;BME280;10809;49.476;11.016;2023-02-20T04:11:44;99185.13;;;6.84;68.88
21300;BME280;10809;49.476;11.016;2023-02-20T04:14:17;99182.50;;;6.84;69.04
21300;BME280;10809;49.476;11.016;2023-02-20T04:16:57;99189.47;;;6.85;69.04
21300;BME280;10809;49.476;11.016;2023-02-20T04:19:30;99193.03;;;6.84;68.70
21300;BME280;10809;49.476;11.016;2023-02-20T04:22:03;99188.63;;;6.84;69.10
21300;BME280;10809;49.476;11.016;2023-02-20T04:24:47;99187.75;;;6.84;68.78
21300;BME280;10809;49.476;11.016;2023-02-20T04:27:26;99195.63;;;6.85;68.81
21300;BME280;10809;49.476;11.016;2023-02-20T06:15:38;99236.88;;;6.50;67.76
21300;BME280;10809;49.476;11.016;2023-02-20T06:18:09;99235.16;;;6.49;67.86
21300;BME280;10809;49.476;11.016;2023-02-20T06:20:39;99236.06;;;6.48;67.79
21300;BME280;10809;49.476;11.016;2023-02-20T06:23:18;99238.69;;;6.48;68.04
21300;BME280;10809;49.476;11.016;2023-02-20T06:25:52;99235.22;;;6.46;67.81
21300;BME280;10809;49.476;11.016;2023-02-20T06:28:23;99243.13;;;6.46;67.46
21300;BME280;10809;49.476;11.016;2023-02-20T06:30:54;99245.75;;;6.46;67.99
21300;BME280;10809;49.476;11.016;2023-02-20T06:33:25;99250.13;;;6.45;68.07
21300;BME280;10809;49.476;11.016;2023-02-20T06:35:55;99253.59;;;6.47;68.00
21300;BME280;10809;49.476;11.016;2023-02-20T06:38:26;99258.88;;;6.47;68.12
21300;BME280;10809;49.476;11.016;2023-02-20T06:40:56;99257.13;;;6.48;68.16
21300;BME280;10809;49.476;11.016;2023-02-20T06:43:27;99250.06;;;6.48;68.05
21300;BME280;10809;49.476;11.016;2023-02-20T06:45:57;99248.31;;;6.49;68.31
21300;BME280;10809;49.476;11.016;2023-02-20T06:48:30;99256.16;;;6.50;68.07
21300;BME280;10809;49.476;11.016;2023-02-20T06:51:01;99255.28;;;6.50;68.25
21300;BME280;10809;49.476;11.016;2023-02-20T06:53:31;99258.75;;;6.52;68.18
21300;BME280;10809;49.476;11.016;2023-02-20T06:56:18;99241.22;;;6.52;68.11
21300;BME280;10809;49.476;11.016;2023-02-20T06:58:51;99246.41;;;6.55;68.11
21300;BME280;10809;49.476;11.016;2023-02-20T07:01:24;99253.38;;;6.56;68.20
21300;BME280;10809;49.476;11.016;2023-02-20T07:03:58;99254.25;;;6.57;68.22
21300;BME280;10809;49.476;11.016;2023-02-20T07:06:29;99251.59;;;6.58;68.04
21300;BME280;10809;49.476;11.016;2023-02-20T07:09:02;99249.81;;;6.59;67.97
21300;BME280;10809;49.476;11.016;2023-02-20T07:11:32;99248.88;;;6.61;68.09
21300;BME280;10809;49.476;11.016;2023-02-20T07:14:06;99250.59;;;6.62;68.12
21300;BME280;10809;49.476;11.016;2023-02-20T07:16:37;99244.38;;;6.65;68.24
21300;BME280;10809;49.476;11.016;2023-02-20T07:19:07;99247.91;;;6.65;68.00
21300;BME280;10809;49.476;11.016;2023-02-20T07:21:38;99241.72;;;6.66;68.03
21300;BME280;10809;49.476;11.016;2023-02-20T07:24:14;99237.31;;;6.67;68.03
21300;BME280;10809;49.476;11.016;2023-02-20T07:26:47;99237.28;;;6.68;67.97
21300;BME280;10809;49.476;11.016;2023-02-20T07:29:18;99239.00;;;6.69;68.16
21300;BME280;10809;49.476;11.016;2023-02-20T07:31:54;99224.97;;;6.70;67.97
21300;BME280;10809;49.476;11.016;2023-02-20T07:34:25;99219.66;;;6.72;67.95
21300;BME280;10809;49.476;11.016;2023-02-20T07:36:55;99247.69;;;6.73;68.09
21300;BME280;10809;49.476;11.016;2023-02-20T07:39:25;99230.94;;;6.77;68.40
21300;BME280;10809;49.476;11.016;2023-02-20T07:41:56;99231.47;;;6.89;70.01
21300;BME280;10809;49.476;11.016;2023-02-20T07:44:48;99240.59;;;7.11;70.87
21300;BME280;10809;49.476;11.016;2023-02-20T07:47:18;99239.78;;;7.40;71.39
21300;BME280;10809;49.476;11.016;2023-02-20T07:49:49;99259.06;;;7.71;71.94
21300;BME280;10809;49.476;11.016;2023-02-20T07:52:22;99249.31;;;8.04;71.16
21300;BME280;10809;49.476;11.016;2023-02-20T07:54:52;99252.75;;;8.35;71.42
21300;BME280;10809;49.476;11.016;2023-02-20T07:57:23;99239.38;;;8.67;70.84
21300;BME280;10809;49.476;11.016;2023-02-20T07:59:53;99231.34;;;8.96;70.05
21300;BME280;10809;49.476;11.016;2023-02-20T08:02:23;99217.16;;;9.23;69.63
21300;BME280;10809;49.476;11.016;2023-02-20T08:04:54;99190.69;;;9.47;69.47
21300;BME280;10809;49.476;11.016;2023-02-20T08:07:24;99185.38;;;9.72;68.64
21300;BME280;10809;49.476;11.016;2023-02-20T08:09:54;99208.22;;;9.96;68.46
21300;BME280;10809;49.476;11.016;2023-02-20T08:12:28;99214.38;;;10.20;67.55
21300;BME280;10809;49.476;11.016;2023-02-20T08:14:58;99209.44;;;10.32;66.18
21300;BME280;10809;49.476;11.016;2023-02-20T08:17:28;99193.94;;;10.45;66.01
21300;BME280;10809;49.476;11.016;2023-02-20T08:20:02;99196.00;;;10.58;65.71
21300;BME280;10809;49.476;11.016;2023-02-20T08:22:33;99199.22;;;10.66;64.71
21300;BME280;10809;49.476;11.016;2023-02-20T08:25:04;99203.56;;;10.67;63.24
21300;BME280;10809;49.476;11.016;2023-02-20T08:27:35;99225.00;;;10.61;62.66
21300;BME280;10809;49.476;11.016;2023-02-20T08:30:12;99223.00;;;10.46;62.04
21300;BME280;10809;49.476;11.016;2023-02-20T08:32:43;99209.56;;;10.29;61.35
21300;BME280;10809;49.476;11.016;2023-02-20T08:35:13;99203.31;;;10.10;61.33
21300;BME280;10809;49.476;11.016;2023-02-20T08:37:44;99201.47;;;9.89;61.60
21300;BME280;10809;49.476;11.016;2023-02-20T08:40:15;99194.22;;;9.71;61.93
21300;BME280;10809;49.476;11.016;2023-02-20T08:42:48;99205.38;;;9.56;62.84
21300;BME280;10809;49.476;11.016;2023-02-20T08:45:19;99209.16;;;9.49;63.31
21300;BME280;10809;49.476;11.016;2023-02-20T08:47:50;99197.78;;;9.47;64.04
21300;BME280;10809;49.476;11.016;2023-02-20T08:50:21;99190.66;;;9.49;64.43
21300;BME280;10809;49.476;11.016;2023-02-20T08:52:51;99174.50;;;9.56;64.55
21300;BME280;10809;49.476;11.016;2023-02-20T08:55:21;99176.00;;;9.64;64.09
21300;BME280;10809;49.476;11.016;2023-02-20T08:57:52;99185.47;;;9.69;63.85
21300;BME280;10809;49.476;11.016;2023-02-20T09:00:22;99181.78;;;9.73;63.50
21300;BME280;10809;49.476;11.016;2023-02-20T09:02:53;99180.00;;;9.74;63.17
21300;BME280;10809;49.476;11.016;2023-02-20T09:05:26;99179.91;;;9.77;63.57
21300;BME280;10809;49.476;11.016;2023-02-20T09:07:57;99176.25;;;9.79;63.56
21300;BME280;10809;49.476;11.016;2023-02-20T09:10:27;99164.66;;;9.83;63.34
21300;BME280;10809;49.476;11.016;2023-02-20T09:12:57;99165.34;;;9.88;63.16
21300;BME280;10809;49.476;11.016;2023-02-20T09:15:28;99164.31;;;9.92;62.81
21300;BME280;10809;49.476;11.016;2023-02-20T09:18:06;99166.81;;;9.95;62.90
21300;BME280;10809;49.476;11.016;2023-02-20T09:20:48;99166.75;;;9.97;63.08
21300;BME280;10809;49.476;11.016;2023-02-20T09:23:21;99149.91;;;9.99;62.63
21300;BME280;10809;49.476;11.016;2023-02-20T09:25:54;99151.63;;;10.02;62.40
21300;BME280;10809;49.476;11.016;2023-02-20T09:28:25;99161.19;;;10.04;62.08
21300;BME280;10809;49.476;11.016;2023-02-20T09:30:58;99157.63;;;10.05;62.68
21300;BME280;10809;49.476;11.016;2023-02-20T09:33:43;99159.31;;;10.08;62.13
21300;BME280;10809;49.476;11.016;2023-02-20T09:36:14;99155.78;;;10.07;61.46
21300;BME280;10809;49.476;11.016;2023-02-20T09:38:47;99137.31;;;10.06;61.42
21300;BME280;10809;49.476;11.016;2023-02-20T09:41:41;99135.63;;;10.05;62.14
21300;BME280;10809;49.476;11.016;2023-02-20T09:44:26;99131.16;;;10.05;62.04
21300;BME280;10809;49.476;11.016;2023-02-20T09:47:11;99127.63;;;10.06;61.97
21300;BME280;10809;49.476;11.016;2023-02-20T09:49:48;99126.63;;;10.09;61.91
21300;BME280;10809;49.476;11.016;2023-02-20T09:52:19;99122.91;;;10.13;61.64
21300;BME280;10809;49.476;11.016;2023-02-20T09:54:53;99113.06;;;10.16;61.75
21300;BME280;10809;49.476;11.016;2023-02-20T09:57:28;99117.44;;;10.17;60.98
21300;BME280;10809;49.476;11.016;2023-02-20T10:00:05;99109.44;;;10.19;61.33
21300;BME280;10809;49.476;11.016;2023-02-20T10:02:41;99122.53;;;10.22;61.35
21300;BME280;10809;49.476;11.016;2023-02-20T10:05:20;99110.97;;;10.24;61.32
21300;BME280;10809;49.476;11.016;2023-02-20T10:07:51;99105.56;;;10.27;60.85
21300;BME280;10809;49.476;11.016;2023-02-20T10:10:30;99102.84;;;10.29;60.63
21300;BME280;10809;49.476;11.016;2023-02-20T10:13:26;99096.69;;;10.28;61.20
21300;BME280;10809;49.476;11.016;2023-02-20T10:16:13;99091.41;;;10.28;60.85
21300;BME280;10809;49.476;11.016;2023-02-20T10:21:34;99085.41;;;10.23;60.05
21300;BME280;10809;49.476;11.016;2023-02-20T10:24:26;99088.19;;;10.20;60.74
21300;BME280;10809;49.476;11.016;2023-02-20T10:27:39;99090.06;;;10.18;60.85
21300;BME280;10809;49.476;11.016;2023-02-20T10:30:17;99083.78;;;10.21;61.05
21300;BME280;10809;49.476;11.016;2023-02-20T10:33:06;99080.19;;;10.22;61.00
21300;BME280;10809;49.476;11.016;2023-02-20T10:35:43;99087.94;;;10.26;60.64
21300;BME280;10809;49.476;11.016;2023-02-20T10:38:23;99080.75;;;10.30;60.96
21300;BME280;10809;49.476;11.016;2023-02-20T10:41:02;99074.44;;;10.32;60.74
21300;BME280;10809;49.476;11.016;2023-02-20T10:43:46;99075.25;;;10.34;60.29
21300;BME280;10809;49.476;11.016;2023-02-20T10:46:26;99062.00;;;10.34;60.29
21300;BME280;10809;49.476;11.016;2023-02-20T10:49:00;99062.09;;;10.33;60.16
21300;BME280;10809;49.476;11.016;2023-02-20T10:51:41;99055.91;;;10.32;60.14
21300;BME280;10809;49.476;11.016;2023-02-20T10:54:20;99047.97;;;10.32;60.35
21300;BME280;10809;49.476;11.016;2023-02-20T10:57:07;99051.50;;;10.33;60.35
21300;BME280;10809;49.476;11.016;2023-02-20T11:00:03;99045.31;;;10.32;60.40
21300;BME280;10809;49.476;11.016;2023-02-20T11:02:58;99047.06;;;10.33;60.29
21300;BME280;10809;49.476;11.016;2023-02-20T11:05:34;99038.19;;;10.34;60.10
21300;BME280;10809;49.476;11.016;2023-02-20T11:08:07;99032.84;;;10.36;59.90
21300;BME280;10809;49.476;11.016;2023-02-20T11:10:38;99034.50;;;10.38;60.18
21300;BME280;10809;49.476;11.016;2023-02-20T11:13:13;99025.56;;;10.41;60.18
21300;BME280;10809;49.476;11.016;2023-02-20T11:15:55;99013.91;;;10.45;60.42
21300;BME280;10809;49.476;11.016;2023-02-20T11:18:34;99010.22;;;10.49;60.49
21300;BME280;10809;49.476;11.016;2023-02-20T11:21:07;99003.63;;;10.57;60.42
21300;BME280;10809;49.476;11.016;2023-02-20T11:23:44;99004.09;;;10.67;60.27
21300;BME280;10809;49.476;11.016;2023-02-20T11:26:31;98985.84;;;10.79;60.98
21300;BME280;10809;49.476;11.016;2023-02-20T11:29:12;98993.94;;;10.95;60.41
21300;BME280;10809;49.476;11.016;2023-02-20T11:31:45;98990.66;;;11.08;60.24
21300;BME280;10809;49.476;11.016;2023-02-20T11:34:22;98969.66;;;11.22;60.18
21300;BME280;10809;49.476;11.016;2023-02-20T11:37:04;98971.63;;;11.38;59.90
21300;BME280;10809;49.476;11.016;2023-02-20T11:39:35;98970.88;;;11.53;59.53
21300;BME280;10809;49.476;11.016;2023-02-20T11:42:12;98978.16;;;11.66;59.29
21300;BME280;10809;49.476;11.016;2023-02-20T11:45:16;98964.91;;;11.83;59.33
21300;BME280;10809;49.476;11.016;2023-02-20T11:48:18;98955.41;;;11.96;58.76
21300;BME280;10809;49.476;11.016;2023-02-20T11:50:52;98941.66;;;12.05;57.94
21300;BME280;10809;49.476;11.016;2023-02-20T11:56:17;98958.28;;;12.09;57.36
21300;BME280;10809;49.476;11.016;2023-02-20T11:58:50;98940.66;;;12.08;56.26
21300;BME280;10809;49.476;11.016;2023-02-20T12:01:32;98941.59;;;12.07;57.24
21300;BME280;10809;49.476;11.016;2023-02-20T12:04:18;98952.22;;;12.07;56.86
21300;BME280;10809;49.476;11.016;2023-02-20T12:06:49;98940.72;;;12.06;56.42
21300;BME280;10809;49.476;11.016;2023-02-20T12:09:23;98929.16;;;12.07;56.90
21300;BME280;10809;49.476;11.016;2023-02-20T12:11:56;98932.59;;;12.09;56.69
21300;BME280;10809;49.476;11.016;2023-02-20T12:14:26;98913.06;;;12.10;56.47
21300;BME280;10809;49.476;11.016;2023-02-20T12:17:12;98909.25;;;12.16;57.22
21300;BME280;10809;49.476;11.016;2023-02-20T12:22:45;98889.16;;;12.27;57.15
21300;BME280;10809;49.476;11.016;2023-02-20T12:25:26;98881.66;;;12.35;56.83
21300;BME280;10809;49.476;11.016;2023-02-20T12:28:19;98891.72;;;12.46;57.02
21300;BME280;10809;49.476;11.016;2023-02-20T12:37:01;98873.16;;;12.77;56.94
21300;BME280;10809;49.476;11.016;2023-02-20T12:39:43;98869.06;;;12.87;56.25
21300;BME280;10809;49.476;11.016;2023-02-20T12:47:41;98859.59;;;13.13;55.06
21300;BME280;10809;49.476;11.016;2023-02-20T12:53:31;98852.81;;;13.23;55.04
21300;BME280;10809;49.476;11.016;2023-02-20T12:59:34;98846.56;;;13.24;54.73
21300;BME280;10809;49.476;11.016;2023-02-20T13:02:24;98837.63;;;13.25;54.85
21300;BME280;10809;49.476;11.016;2023-02-20T13:04:57;98830.53;;;13.25;54.16
21300;BME280;10809;49.476;11.016;2023-02-20T13:07:39;98838.41;;;13.27;54.34
21300;BME280;10809;49.476;11.016;2023-02-20T13:10:14;98850.75;;;13.28;53.30
21300;BME280;10809;49.476;11.016;2023-02-20T13:12:48;98839.94;;;13.31;52.75
21300;BME280;10809;49.476;11.016;2023-02-20T13:15:41;98836.31;;;13.32;53.62
21300;BME280;10809;49.476;11.016;2023-02-20T13:21:29;98838.88;;;13.33;53.25
21300;BME280;10809;49.476;11.016;2023-02-20T13:26:56;98833.56;;;13.33;52.80
21300;BME280;10809;49.476;11.016;2023-02-20T13:29:28;98842.50;;;13.32;51.43
21300;BME280;10809;49.476;11.016;2023-02-20T13:34:52;98828.50;;;13.29;51.52
21300;BME280;10809;49.476;11.016;2023-02-20T13:45:48;98810.94;;;13.26;51.92
21300;BME280;10809;49.476;11.016;2023-02-20T13:48:50;98809.06;;;13.28;52.13
21300;BME280;10809;49.476;11.016;2023-02-20T13:54:14;98802.69;;;13.31;51.93
21300;BME280;10809;49.476;11.016;2023-02-20T13:56:57;98803.56;;;13.31;51.93
21300;BME280;10809;49.476;11.016;2023-02-20T13:59:35;98796.31;;;13.33;51.18
21300;BME280;10809;49.476;11.016;2023-02-20T14:04:56;98790.19;;;13.33;51.58
21300;BME280;10809;49.476;11.016;2023-02-20T14:07:36;98779.53;;;13.33;51.38
21300;BME280;10809;49.476;11.016;2023-02-20T14:10:21;98789.13;;;13.35;51.29
21300;BME280;10809;49.476;11.016;2023-02-20T14:15:50;98780.19;;;13.36;51.45
21300;BME280;10809;49.476;11.016;2023-02-20T14:18:34;98770.31;;;13.38;51.26
21300;BME280;10809;49.476;11.016;2023-02-20T14:21:19;98757.88;;;13.39;51.20
21300;BME280;10809;49.476;11.016;2023-02-20T14:23:52;98764.91;;;13.40;50.21
21300;BME280;10809;49.476;11.016;2023-02-20T14:26:29;98769.38;;;13.39;50.65
21300;BME280;10809;49.476;11.016;2023-02-20T14:29:00;98758.72;;;13.39;50.03
21300;BME280;10809;49.476;11.016;2023-02-20T14:31:36;98756.06;;;13.39;51.01
21300;BME280;10809;49.476;11.016;2023-02-20T14:34:14;98757.88;;;13.39;50.27
21300;BME280;10809;49.476;11.016;2023-02-20T14:37:15;98756.06;;;13.39;50.27
21300;BME280;10809;49.476;11.016;2023-02-20T14:42:41;98739.28;;;13.39;49.78
21300;BME280;10809;49.476;11.016;2023-02-20T14:45:24;98748.09;;;13.39;50.33
21300;BME280;10809;49.476;11.016;2023-02-20T14:47:57;98750.66;;;13.41;49.44
21300;BME280;10809;49.476;11.016;2023-02-20T14:50:34;98744.31;;;13.43;49.69
21300;BME280;10809;49.476;11.016;2023-02-20T14:53:17;98737.88;;;13.47;50.07
21300;BME280;10809;49.476;11.016;2023-02-20T14:55:48;98735.81;;;13.52;49.56
21300;BME280;10809;49.476;11.016;2023-02-20T14:58:20;98734.66;;;13.56;49.46
21300;BME280;10809;49.476;11.016;2023-02-20T15:01:13;98733.47;;;13.62;50.24
21300;BME280;10809;49.476;11.016;2023-02-20T15:03:58;98721.56;;;13.67;49.80
21300;BME280;10809;49.476;11.016;2023-02-20T15:06:34;98709.78;;;13.71;49.32
21300;BME280;10809;49.476;11.016;2023-02-20T15:09:06;98707.03;;;13.73;48.86
21300;BME280;10809;49.476;11.016;2023-02-20T15:11:45;98703.25;;;13.77;49.08
21300;BME280;10809;49.476;11.016;2023-02-20T15:14:22;98721.88;;;13.77;48.73
21300;BME280;10809;49.476;11.016;2023-02-20T15:19:50;98706.28;;;13.71;48.21
21300;BME280;10809;49.476;11.016;2023-02-20T15:22:31;98694.28;;;13.64;48.24
21300;BME280;10809;49.476;11.016;2023-02-20T15:25:29;98693.81;;;13.57;48.30
21300;BME280;10809;49.476;11.016;2023-02-20T15:28:09;98697.97;;;13.47;47.99
21300;BME280;10809;49.476;11.016;2023-02-20T15:31:00;98693.28;;;13.37;48.34
21300;BME280;10809;49.476;11.016;2023-02-20T15:33:34;98692.88;;;13.29;47.84
21300;BME280;10809;49.476;11.016;2023-02-20T15:36:09;98693.34;;;13.21;47.65
21300;BME280;10809;49.476;11.016;2023-02-20T15:38:40;98684.03;;;13.14;47.80
21300;BME280;10809;49.476;11.016;2023-02-20T15:41:11;98685.34;;;13.07;47.76
21300;BME280;10809;49.476;11.016;2023-02-20T15:43:41;98681.34;;;13.00;47.68
21300;BME280;10809;49.476;11.016;2023-02-20T15:46:12;98690.44;;;12.96;47.95
21300;BME280;10809;49.476;11.016;2023-02-20T15:48:43;98692.50;;;12.91;48.32
21300;BME280;10809;49.476;11.016;2023-02-20T15:51:19;98696.31;;;12.87;48.02
21300;BME280;10809;49.476;11.016;2023-02-20T15:53:51;98694.75;;;12.83;48.17
21300;BME280;10809;49.476;11.016;2023-02-20T15:56:23;98680.81;;;12.79;47.95
21300;BME280;10809;49.476;11.016;2023-02-20T15:59:03;98681.91;;;12.75;47.96
21300;BME280;10809;49.476;11.016;2023-02-20T16:01:34;98686.56;;;12.72;48.33
21300;BME280;10809;49.476;11.016;2023-02-20T16:04:05;98681.53;;;12.67;48.08
21300;BME280;10809;49.476;11.016;2023-02-20T16:06:36;98669.44;;;12.62;48.03
21300;BME280;10809;49.476;11.016;2023-02-20T16:09:06;98670.56;;;12.58;48.03
21300;BME280;10809;49.476;11.016;2023-02-20T16:11:40;98672.63;;;12.53;48.21
21300;BME280;10809;49.476;11.016;2023-02-20T16:14:13;98673.75;;;12.49;48.22
21300;BME280;10809;49.476;11.016;2023-02-20T16:16:47;98667.00;;;12.43;48.18
21300;BME280;10809;49.476;11.016;2023-02-20T16:19:21;98667.25;;;12.39;48.00
21300;BME280;10809;49.476;11.016;2023-02-20T16:21:52;98661.41;;;12.32;47.83
21300;BME280;10809;49.476;11.016;2023-02-20T16:24:23;98667.16;;;12.25;48.00
21300;BME280;10809;49.476;11.016;2023-02-20T16:26:53;98678.03;;;12.20;47.97
21300;BME280;10809;49.476;11.016;2023-02-20T16:29:30;98673.16;;;12.13;48.24
21300;BME280;10809;49.476;11.016;2023-02-20T16:34:32;98678.19;;;12.02;48.24
21300;BME280;10809;49.476;11.016;2023-02-20T16:37:03;98681.19;;;11.96;48.29
21300;BME280;10809;49.476;11.016;2023-02-20T16:39:33;98678.88;;;11.90;48.29
21300;BME280;10809;49.476;11.016;2023-02-20T16:42:26;98673.03;;;11.83;48.45
21300;BME280;10809;49.476;11.016;2023-02-20T16:44:58;98670.72;;;11.77;48.23
21300;BME280;10809;49.476;11.016;2023-02-20T16:47:30;98667.38;;;11.74;48.53
21300;BME280;10809;49.476;11.016;2023-02-20T16:50:13;98665.91;;;11.68;48.56
21300;BME280;10809;49.476;11.016;2023-02-20T16:52:44;98671.47;;;11.64;48.55
21300;BME280;10809;49.476;11.016;2023-02-20T16:57:48;98671.97;;;11.55;48.61
21300;BME280;10809;49.476;11.016;2023-02-20T17:00:25;98672.22;;;11.50;48.79